sensor_id;sensor_type;location;lat;lon;timestamp;temperature;humidity
35607;DHT22;21729;58.392;15.656;2023-07-31T00:00:24;13.70;1.00
35607;DHT22;21729;58.392;15.656;2023-07-31T00:02:52;13.80;1.00
35607;DHT22;21729;58.392;15.656;2023-07-31T00:05:19;13.80;4.00
35607;DHT22;21729;58.392;15.656;2023-07-31T00:07:46;13.80;1.00
35607;DHT22;21729;58.392;15.656;2023-07-31T00:10:13;13.90;1.00
35607;DHT22;21729;58.392;15.656;2023-07-31T00:12:44;14.00;1.00
35607;DHT22;21729;58.392;15.656;2023-07-31T00:15:12;14.00;1.00
35607;DHT22;21729;58.392;15.656;2023-07-31T00:17:39;14.00;1.00
35607;DHT22;21729;58.392;15.656;2023-07-31T00:20:07;14.00;1.00
35607;DHT22;21729;58.392;15.656;2023-07-31T00:22:35;14.00;1.00
35607;DHT22;21729;58.392;15.656;2023-07-31T00:25:02;14.00;1.00
35607;DHT22;21729;58.392;15.656;2023-07-31T00:27:32;14.00;1.00
35607;DHT22;21729;58.392;15.656;2023-07-31T00:30:00;13.90;1.00
35607;DHT22;21729;58.392;15.656;2023-07-31T00:32:27;14.00;1.00
35607;DHT22;21729;58.392;15.656;2023-07-31T00:34:54;14.10;1.00
35607;DHT22;21729;58.392;15.656;2023-07-31T00:37:21;14.10;1.00
35607;DHT22;21729;58.392;15.656;2023-07-31T00:39:48;14.10;1.00
35607;DHT22;21729;58.392;15.656;2023-07-31T00:42:16;14.20;1.00
35607;DHT22;21729;58.392;15.656;2023-07-31T00:44:43;14.30;1.00
35607;DHT22;21729;58.392;15.656;2023-07-31T00:47:11;14.30;1.00
35607;DHT22;21729;58.392;15.656;2023-07-31T00:49:38;14.40;1.00
35607;DHT22;21729;58.392;15.656;2023-07-31T00:52:06;14.40;1.00
35607;DHT22;21729;58.392;15.656;2023-07-31T00:54:34;14.50;1.00
35607;DHT22;21729;58.392;15.656;2023-07-31T00:57:01;14.50;40.20
35607;DHT22;21729;58.392;15.656;2023-07-31T00:59:28;14.40;99.90
35607;DHT22;21729;58.392;15.656;2023-07-31T01:01:55;14.20;99.90
35607;DHT22;21729;58.392;15.656;2023-07-31T01:04:24;14.10;1.00
35607;DHT22;21729;58.392;15.656;2023-07-31T01:06:55;14.00;1.00
35607;DHT22;21729;58.392;15.656;2023-07-31T01:09:32;13.90;11.80
35607;DHT22;21729;58.392;15.656;2023-07-31T01:12:03;13.80;47.20
35607;DHT22;21729;58.392;15.656;2023-07-31T01:14:30;13.80;80.10
35607;DHT22;21729;58.392;15.656;2023-07-31T01:16:57;13.70;62.50
35607;DHT22;21729;58.392;15.656;2023-07-31T01:19:26;13.70;99.90
35607;DHT22;21729;58.392;15.656;2023-07-31T01:22:10;13.70;99.80
35607;DHT22;21729;58.392;15.656;2023-07-31T01:24:49;13.70;99.90
35607;DHT22;21729;58.392;15.656;2023-07-31T01:27:25;13.60;99.90
35607;DHT22;21729;58.392;15.656;2023-07-31T01:29:56;13.60;99.90
35607;DHT22;21729;58.392;15.656;2023-07-31T01:32:28;13.60;99.90
35607;DHT22;21729;58.392;15.656;2023-07-31T01:34:57;13.50;99.90
35607;DHT22;21729;58.392;15.656;2023-07-31T01:37:28;13.50;99.90
35607;DHT22;21729;58.392;15.656;2023-07-31T01:39:55;13.50;99.90
35607;DHT22;21729;58.392;15.656;2023-07-31T01:42:24;13.50;99.90
35607;DHT22;21729;58.392;15.656;2023-07-31T01:44:51;13.40;99.90
35607;DHT22;21729;58.392;15.656;2023-07-31T01:47:18;13.40;99.90
35607;DHT22;21729;58.392;15.656;2023-07-31T01:49:45;13.40;99.90
35607;DHT22;21729;58.392;15.656;2023-07-31T01:52:13;13.40;99.90
35607;DHT22;21729;58.392;15.656;2023-07-31T01:54:40;13.40;99.90
35607;DHT22;21729;58.392;15.656;2023-07-31T01:57:07;13.40;99.90
35607;DHT22;21729;58.392;15.656;2023-07-31T01:59:35;13.40;99.90
35607;DHT22;21729;58.392;15.656;2023-07-31T02:02:03;13.40;99.90
35607;DHT22;21729;58.392;15.656;2023-07-31T02:04:30;13.40;99.90
35607;DHT22;21729;58.392;15.656;2023-07-31T02:06:57;13.40;99.90
35607;DHT22;21729;58.392;15.656;2023-07-31T02:09:24;13.40;99.90
35607;DHT22;21729;58.392;15.656;2023-07-31T02:11:51;13.40;99.90
35607;DHT22;21729;58.392;15.656;2023-07-31T02:14:18;13.40;99.90
35607;DHT22;21729;58.392;15.656;2023-07-31T02:16:47;13.40;99.90
35607;DHT22;21729;58.392;15.656;2023-07-31T02:19:14;13.40;99.90
35607;DHT22;21729;58.392;15.656;2023-07-31T02:21:41;13.40;99.90
35607;DHT22;21729;58.392;15.656;2023-07-31T02:24:08;13.30;99.90
35607;DHT22;21729;58.392;15.656;2023-07-31T02:26:35;13.30;99.90
35607;DHT22;21729;58.392;15.656;2023-07-31T02:29:02;13.30;99.90
35607;DHT22;21729;58.392;15.656;2023-07-31T02:31:29;13.40;99.90
35607;DHT22;21729;58.392;15.656;2023-07-31T02:33:57;13.40;99.90
35607;DHT22;21729;58.392;15.656;2023-07-31T02:36:25;13.30;99.90
35607;DHT22;21729;58.392;15.656;2023-07-31T02:38:52;13.30;99.90
35607;DHT22;21729;58.392;15.656;2023-07-31T02:41:19;13.20;99.90
35607;DHT22;21729;58.392;15.656;2023-07-31T02:43:46;13.20;99.90
35607;DHT22;21729;58.392;15.656;2023-07-31T02:46:13;13.20;99.90
35607;DHT22;21729;58.392;15.656;2023-07-31T02:48:40;13.20;99.90
35607;DHT22;21729;58.392;15.656;2023-07-31T02:51:08;13.20;99.90
35607;DHT22;21729;58.392;15.656;2023-07-31T02:53:36;13.30;99.90
35607;DHT22;21729;58.392;15.656;2023-07-31T02:56:03;13.30;99.90
35607;DHT22;21729;58.392;15.656;2023-07-31T02:58:30;13.20;99.90
35607;DHT22;21729;58.392;15.656;2023-07-31T03:00:58;13.20;99.90
35607;DHT22;21729;58.392;15.656;2023-07-31T03:03:25;13.20;99.90
35607;DHT22;21729;58.392;15.656;2023-07-31T03:05:53;13.10;99.90
35607;DHT22;21729;58.392;15.656;2023-07-31T03:08:21;13.10;99.90
35607;DHT22;21729;58.392;15.656;2023-07-31T03:10:48;13.10;99.90
35607;DHT22;21729;58.392;15.656;2023-07-31T03:13:16;13.00;99.90
35607;DHT22;21729;58.392;15.656;2023-07-31T03:15:43;13.10;99.90
35607;DHT22;21729;58.392;15.656;2023-07-31T03:18:10;13.00;99.90
35607;DHT22;21729;58.392;15.656;2023-07-31T03:20:37;12.90;99.90
35607;DHT22;21729;58.392;15.656;2023-07-31T03:23:04;12.80;99.90
35607;DHT22;21729;58.392;15.656;2023-07-31T03:25:32;12.80;99.90
35607;DHT22;21729;58.392;15.656;2023-07-31T03:28:00;12.80;99.90
35607;DHT22;21729;58.392;15.656;2023-07-31T03:30:27;12.70;99.90
35607;DHT22;21729;58.392;15.656;2023-07-31T03:32:54;12.70;99.90
35607;DHT22;21729;58.392;15.656;2023-07-31T03:35:21;12.70;99.90
35607;DHT22;21729;58.392;15.656;2023-07-31T03:37:48;12.60;99.90
35607;DHT22;21729;58.392;15.656;2023-07-31T03:40:15;12.70;99.90
35607;DHT22;21729;58.392;15.656;2023-07-31T03:42:44;12.60;99.90
35607;DHT22;21729;58.392;15.656;2023-07-31T03:45:11;12.60;99.90
35607;DHT22;21729;58.392;15.656;2023-07-31T03:47:38;12.60;99.90
35607;DHT22;21729;58.392;15.656;2023-07-31T03:50:06;12.60;99.90
35607;DHT22;21729;58.392;15.656;2023-07-31T03:52:33;12.50;99.90
35607;DHT22;21729;58.392;15.656;2023-07-31T03:55:00;12.50;99.90
35607;DHT22;21729;58.392;15.656;2023-07-31T03:57:27;12.60;99.90
35607;DHT22;21729;58.392;15.656;2023-07-31T03:59:55;12.50;99.90
35607;DHT22;21729;58.392;15.656;2023-07-31T04:02:23;12.50;99.90
35607;DHT22;21729;58.392;15.656;2023-07-31T04:04:50;12.50;99.90
35607;DHT22;21729;58.392;15.656;2023-07-31T04:07:17;12.60;99.90
35607;DHT22;21729;58.392;15.656;2023-07-31T04:09:44;12.50;99.90
35607;DHT22;21729;58.392;15.656;2023-07-31T04:12:12;12.60;99.90
35607;DHT22;21729;58.392;15.656;2023-07-31T04:14:39;12.70;99.90
35607;DHT22;21729;58.392;15.656;2023-07-31T04:17:07;12.80;99.90
35607;DHT22;21729;58.392;15.656;2023-07-31T04:19:34;12.90;99.90
35607;DHT22;21729;58.392;15.656;2023-07-31T04:22:03;13.00;99.90
35607;DHT22;21729;58.392;15.656;2023-07-31T04:24:30;13.10;99.90
35607;DHT22;21729;58.392;15.656;2023-07-31T04:26:57;13.10;99.90
35607;DHT22;21729;58.392;15.656;2023-07-31T04:29:24;13.10;99.90
35607;DHT22;21729;58.392;15.656;2023-07-31T04:31:51;13.10;99.90
35607;DHT22;21729;58.392;15.656;2023-07-31T04:34:20;13.20;99.90
35607;DHT22;21729;58.392;15.656;2023-07-31T04:36:47;13.30;99.90
35607;DHT22;21729;58.392;15.656;2023-07-31T04:39:14;13.40;99.90
35607;DHT22;21729;58.392;15.656;2023-07-31T04:41:41;13.50;99.90
35607;DHT22;21729;58.392;15.656;2023-07-31T04:44:08;13.90;99.90
35607;DHT22;21729;58.392;15.656;2023-07-31T04:46:36;13.80;99.90
35607;DHT22;21729;58.392;15.656;2023-07-31T04:49:04;13.80;99.90
35607;DHT22;21729;58.392;15.656;2023-07-31T04:51:32;13.90;99.90
35607;DHT22;21729;58.392;15.656;2023-07-31T04:53:59;13.90;99.90
35607;DHT22;21729;58.392;15.656;2023-07-31T04:56:26;14.00;99.90
35607;DHT22;21729;58.392;15.656;2023-07-31T04:58:54;14.00;99.90
35607;DHT22;21729;58.392;15.656;2023-07-31T05:01:21;14.10;99.90
35607;DHT22;21729;58.392;15.656;2023-07-31T05:03:48;14.20;99.90
35607;DHT22;21729;58.392;15.656;2023-07-31T05:06:15;14.40;99.90
35607;DHT22;21729;58.392;15.656;2023-07-31T05:08:43;14.40;99.90
35607;DHT22;21729;58.392;15.656;2023-07-31T05:11:10;14.50;84.50
35607;DHT22;21729;58.392;15.656;2023-07-31T05:13:37;14.40;99.90
35607;DHT22;21729;58.392;15.656;2023-07-31T05:16:04;14.60;99.90
35607;DHT22;21729;58.392;15.656;2023-07-31T05:18:32;14.60;99.90
35607;DHT22;21729;58.392;15.656;2023-07-31T05:20:59;14.70;92.90
35607;DHT22;21729;58.392;15.656;2023-07-31T05:23:26;14.60;76.00
35607;DHT22;21729;58.392;15.656;2023-07-31T05:25:54;14.70;74.00
35607;DHT22;21729;58.392;15.656;2023-07-31T05:28:22;14.70;23.00
35607;DHT22;21729;58.392;15.656;2023-07-31T05:30:49;14.80;93.20
35607;DHT22;21729;58.392;15.656;2023-07-31T05:33:16;14.90;83.80
35607;DHT22;21729;58.392;15.656;2023-07-31T05:35:43;14.90;1.00
35607;DHT22;21729;58.392;15.656;2023-07-31T05:38:10;15.00;33.50
35607;DHT22;21729;58.392;15.656;2023-07-31T05:40:38;15.00;1.00
35607;DHT22;21729;58.392;15.656;2023-07-31T05:43:06;15.20;1.00
35607;DHT22;21729;58.392;15.656;2023-07-31T05:45:33;15.40;1.00
35607;DHT22;21729;58.392;15.656;2023-07-31T05:48:01;15.40;1.00
35607;DHT22;21729;58.392;15.656;2023-07-31T05:50:28;15.50;99.90
35607;DHT22;21729;58.392;15.656;2023-07-31T05:52:55;15.80;99.90
35607;DHT22;21729;58.392;15.656;2023-07-31T05:55:22;16.10;99.90
35607;DHT22;21729;58.392;15.656;2023-07-31T05:57:49;16.40;99.90
35607;DHT22;21729;58.392;15.656;2023-07-31T06:00:17;16.50;99.90
35607;DHT22;21729;58.392;15.656;2023-07-31T06:02:45;16.90;99.90
35607;DHT22;21729;58.392;15.656;2023-07-31T06:05:15;17.70;1.00
35607;DHT22;21729;58.392;15.656;2023-07-31T06:07:42;18.40;1.00
35607;DHT22;21729;58.392;15.656;2023-07-31T06:10:09;18.70;1.00
35607;DHT22;21729;58.392;15.656;2023-07-31T06:12:36;18.10;1.00
35607;DHT22;21729;58.392;15.656;2023-07-31T06:15:05;17.90;1.00
35607;DHT22;21729;58.392;15.656;2023-07-31T06:17:33;17.90;1.00
35607;DHT22;21729;58.392;15.656;2023-07-31T06:20:00;18.10;1.00
35607;DHT22;21729;58.392;15.656;2023-07-31T06:22:31;17.80;1.00
35607;DHT22;21729;58.392;15.656;2023-07-31T06:24:58;18.20;1.70
35607;DHT22;21729;58.392;15.656;2023-07-31T06:27:25;18.50;1.00
35607;DHT22;21729;58.392;15.656;2023-07-31T06:29:52;19.00;1.00
35607;DHT22;21729;58.392;15.656;2023-07-31T06:32:19;19.20;1.00
35607;DHT22;21729;58.392;15.656;2023-07-31T06:34:48;19.50;99.90
35607;DHT22;21729;58.392;15.656;2023-07-31T06:37:15;19.30;1.00
35607;DHT22;21729;58.392;15.656;2023-07-31T06:39:43;19.00;99.90
35607;DHT22;21729;58.392;15.656;2023-07-31T06:42:10;18.80;1.00
35607;DHT22;21729;58.392;15.656;2023-07-31T06:44:37;19.20;99.90
35607;DHT22;21729;58.392;15.656;2023-07-31T06:47:04;18.90;99.90
35607;DHT22;21729;58.392;15.656;2023-07-31T06:49:34;18.60;1.00
35607;DHT22;21729;58.392;15.656;2023-07-31T06:52:03;18.60;1.00
35607;DHT22;21729;58.392;15.656;2023-07-31T06:54:30;18.20;1.00
35607;DHT22;21729;58.392;15.656;2023-07-31T06:56:57;18.60;1.00
35607;DHT22;21729;58.392;15.656;2023-07-31T06:59:24;18.80;1.00
35607;DHT22;21729;58.392;15.656;2023-07-31T07:01:51;18.50;1.00
35607;DHT22;21729;58.392;15.656;2023-07-31T07:04:18;18.60;1.00
35607;DHT22;21729;58.392;15.656;2023-07-31T07:06:46;18.70;1.00
35607;DHT22;21729;58.392;15.656;2023-07-31T07:09:14;18.60;1.00
35607;DHT22;21729;58.392;15.656;2023-07-31T07:11:41;18.70;1.00
35607;DHT22;21729;58.392;15.656;2023-07-31T07:14:09;18.80;99.90
35607;DHT22;21729;58.392;15.656;2023-07-31T07:16:36;18.80;99.90
35607;DHT22;21729;58.392;15.656;2023-07-31T07:19:03;19.60;99.90
35607;DHT22;21729;58.392;15.656;2023-07-31T07:21:30;19.20;1.40
35607;DHT22;21729;58.392;15.656;2023-07-31T07:23:57;19.30;1.00
35607;DHT22;21729;58.392;15.656;2023-07-31T07:26:26;19.20;99.90
35607;DHT22;21729;58.392;15.656;2023-07-31T07:28:53;19.30;1.00
35607;DHT22;21729;58.392;15.656;2023-07-31T07:31:20;19.20;99.90
35607;DHT22;21729;58.392;15.656;2023-07-31T07:33:47;19.10;99.90
35607;DHT22;21729;58.392;15.656;2023-07-31T07:36:14;19.20;99.90
35607;DHT22;21729;58.392;15.656;2023-07-31T07:38:42;19.30;99.90
35607;DHT22;21729;58.392;15.656;2023-07-31T07:41:09;19.60;99.90
35607;DHT22;21729;58.392;15.656;2023-07-31T07:43:37;20.90;5.00
35607;DHT22;21729;58.392;15.656;2023-07-31T07:46:04;21.80;1.00
35607;DHT22;21729;58.392;15.656;2023-07-31T07:48:31;23.80;99.90
35607;DHT22;21729;58.392;15.656;2023-07-31T07:50:58;24.80;99.90
35607;DHT22;21729;58.392;15.656;2023-07-31T07:53:26;24.90;99.90
35607;DHT22;21729;58.392;15.656;2023-07-31T07:55:53;25.70;99.90
35607;DHT22;21729;58.392;15.656;2023-07-31T07:58:20;25.10;99.90
35607;DHT22;21729;58.392;15.656;2023-07-31T08:00:52;23.60;99.90
35607;DHT22;21729;58.392;15.656;2023-07-31T08:03:19;22.80;99.90
35607;DHT22;21729;58.392;15.656;2023-07-31T08:05:46;21.80;99.90
35607;DHT22;21729;58.392;15.656;2023-07-31T08:08:15;22.60;1.00
35607;DHT22;21729;58.392;15.656;2023-07-31T08:10:43;21.90;99.90
35607;DHT22;21729;58.392;15.656;2023-07-31T08:13:10;21.00;1.00
35607;DHT22;21729;58.392;15.656;2023-07-31T08:15:37;19.60;30.70
35607;DHT22;21729;58.392;15.656;2023-07-31T08:18:06;19.30;97.90
35607;DHT22;21729;58.392;15.656;2023-07-31T08:20:33;19.00;99.90
35607;DHT22;21729;58.392;15.656;2023-07-31T08:23:00;19.10;99.90
35607;DHT22;21729;58.392;15.656;2023-07-31T08:25:27;19.50;99.90
35607;DHT22;21729;58.392;15.656;2023-07-31T08:27:54;20.70;40.00
35607;DHT22;21729;58.392;15.656;2023-07-31T08:30:21;22.80;1.00
35607;DHT22;21729;58.392;15.656;2023-07-31T08:32:49;23.80;99.90
35607;DHT22;21729;58.392;15.656;2023-07-31T08:35:17;23.80;99.90
35607;DHT22;21729;58.392;15.656;2023-07-31T08:37:45;23.60;99.90
35607;DHT22;21729;58.392;15.656;2023-07-31T08:40:12;23.20;99.90
35607;DHT22;21729;58.392;15.656;2023-07-31T08:42:50;23.50;99.90
35607;DHT22;21729;58.392;15.656;2023-07-31T08:45:18;24.10;99.90
35607;DHT22;21729;58.392;15.656;2023-07-31T08:47:47;24.10;99.90
35607;DHT22;21729;58.392;15.656;2023-07-31T08:50:15;23.80;99.90
35607;DHT22;21729;58.392;15.656;2023-07-31T08:52:45;23.80;99.90
35607;DHT22;21729;58.392;15.656;2023-07-31T08:55:12;24.60;99.90
35607;DHT22;21729;58.392;15.656;2023-07-31T08:57:40;25.30;99.90
35607;DHT22;21729;58.392;15.656;2023-07-31T09:00:10;24.20;99.90
35607;DHT22;21729;58.392;15.656;2023-07-31T09:02:41;22.50;99.90
35607;DHT22;21729;58.392;15.656;2023-07-31T09:05:11;21.00;99.90
35607;DHT22;21729;58.392;15.656;2023-07-31T09:07:39;20.20;1.00
35607;DHT22;21729;58.392;15.656;2023-07-31T09:10:08;19.70;1.00
35607;DHT22;21729;58.392;15.656;2023-07-31T09:12:36;19.50;1.00
35607;DHT22;21729;58.392;15.656;2023-07-31T09:15:04;19.90;1.00
35607;DHT22;21729;58.392;15.656;2023-07-31T09:17:32;22.20;1.00
35607;DHT22;21729;58.392;15.656;2023-07-31T09:20:13;22.40;1.00
35607;DHT22;21729;58.392;15.656;2023-07-31T09:22:40;24.50;99.90
35607;DHT22;21729;58.392;15.656;2023-07-31T09:25:20;23.80;99.90
35607;DHT22;21729;58.392;15.656;2023-07-31T09:27:49;24.80;99.90
35607;DHT22;21729;58.392;15.656;2023-07-31T09:30:17;26.20;99.90
35607;DHT22;21729;58.392;15.656;2023-07-31T09:32:45;26.30;99.90
35607;DHT22;21729;58.392;15.656;2023-07-31T09:35:19;27.10;99.90
35607;DHT22;21729;58.392;15.656;2023-07-31T09:37:51;27.20;99.90
35607;DHT22;21729;58.392;15.656;2023-07-31T09:40:30;26.70;99.90
35607;DHT22;21729;58.392;15.656;2023-07-31T09:42:58;27.60;99.90
35607;DHT22;21729;58.392;15.656;2023-07-31T09:45:26;27.50;76.30
35607;DHT22;21729;58.392;15.656;2023-07-31T09:47:53;27.00;99.90
35607;DHT22;21729;58.392;15.656;2023-07-31T09:50:22;26.30;10.80
35607;DHT22;21729;58.392;15.656;2023-07-31T09:52:49;24.60;99.90
35607;DHT22;21729;58.392;15.656;2023-07-31T09:55:17;23.80;99.90
35607;DHT22;21729;58.392;15.656;2023-07-31T09:57:47;23.10;99.90
35607;DHT22;21729;58.392;15.656;2023-07-31T10:00:18;24.30;99.90
35607;DHT22;21729;58.392;15.656;2023-07-31T10:02:48;23.70;99.90
35607;DHT22;21729;58.392;15.656;2023-07-31T10:05:15;23.90;99.90
35607;DHT22;21729;58.392;15.656;2023-07-31T10:07:46;24.20;99.90
35607;DHT22;21729;58.392;15.656;2023-07-31T10:10:16;24.70;99.90
35607;DHT22;21729;58.392;15.656;2023-07-31T10:12:45;24.20;99.90
35607;DHT22;21729;58.392;15.656;2023-07-31T10:15:14;24.80;99.90
35607;DHT22;21729;58.392;15.656;2023-07-31T10:17:42;25.10;99.40
35607;DHT22;21729;58.392;15.656;2023-07-31T10:20:10;24.60;99.90
35607;DHT22;21729;58.392;15.656;2023-07-31T10:22:38;24.30;99.90
35607;DHT22;21729;58.392;15.656;2023-07-31T10:25:08;24.60;99.90
35607;DHT22;21729;58.392;15.656;2023-07-31T10:27:35;24.50;95.10
35607;DHT22;21729;58.392;15.656;2023-07-31T10:30:07;24.50;90.40
35607;DHT22;21729;58.392;15.656;2023-07-31T10:32:37;23.90;99.90
35607;DHT22;21729;58.392;15.656;2023-07-31T10:35:06;24.20;91.30
35607;DHT22;21729;58.392;15.656;2023-07-31T10:37:37;24.70;99.90
35607;DHT22;21729;58.392;15.656;2023-07-31T10:40:06;24.20;99.90
35607;DHT22;21729;58.392;15.656;2023-07-31T10:42:35;24.00;99.90
35607;DHT22;21729;58.392;15.656;2023-07-31T10:45:05;24.30;99.90
35607;DHT22;21729;58.392;15.656;2023-07-31T10:47:37;24.00;75.80
35607;DHT22;21729;58.392;15.656;2023-07-31T10:50:17;24.00;44.80
35607;DHT22;21729;58.392;15.656;2023-07-31T10:52:48;23.60;99.90
35607;DHT22;21729;58.392;15.656;2023-07-31T10:55:27;23.00;99.90
35607;DHT22;21729;58.392;15.656;2023-07-31T10:57:55;22.30;99.90
35607;DHT22;21729;58.392;15.656;2023-07-31T11:00:26;22.10;99.90
35607;DHT22;21729;58.392;15.656;2023-07-31T11:03:01;22.10;99.90
35607;DHT22;21729;58.392;15.656;2023-07-31T11:05:50;22.20;99.90
35607;DHT22;21729;58.392;15.656;2023-07-31T11:08:21;22.10;99.90
35607;DHT22;21729;58.392;15.656;2023-07-31T11:10:50;21.60;99.90
35607;DHT22;21729;58.392;15.656;2023-07-31T11:13:18;21.30;99.90
35607;DHT22;21729;58.392;15.656;2023-07-31T11:15:47;21.30;99.90
35607;DHT22;21729;58.392;15.656;2023-07-31T11:18:14;21.30;99.90
35607;DHT22;21729;58.392;15.656;2023-07-31T11:20:42;21.00;99.90
35607;DHT22;21729;58.392;15.656;2023-07-31T11:23:10;21.00;99.90
35607;DHT22;21729;58.392;15.656;2023-07-31T11:25:39;21.20;99.90
35607;DHT22;21729;58.392;15.656;2023-07-31T11:28:09;21.40;99.90
35607;DHT22;21729;58.392;15.656;2023-07-31T11:30:36;21.70;99.90
35607;DHT22;21729;58.392;15.656;2023-07-31T11:33:06;21.80;99.90
35607;DHT22;21729;58.392;15.656;2023-07-31T11:35:34;22.40;99.90
35607;DHT22;21729;58.392;15.656;2023-07-31T11:38:02;23.00;99.90
35607;DHT22;21729;58.392;15.656;2023-07-31T11:40:29;23.00;99.90
35607;DHT22;21729;58.392;15.656;2023-07-31T11:42:57;22.70;99.90
35607;DHT22;21729;58.392;15.656;2023-07-31T11:45:26;23.20;99.90
35607;DHT22;21729;58.392;15.656;2023-07-31T11:47:55;22.70;99.90
35607;DHT22;21729;58.392;15.656;2023-07-31T11:50:24;22.40;99.90
35607;DHT22;21729;58.392;15.656;2023-07-31T11:52:57;22.30;99.90
35607;DHT22;21729;58.392;15.656;2023-07-31T11:55:26;22.80;99.90
35607;DHT22;21729;58.392;15.656;2023-07-31T11:57:54;23.30;99.90
35607;DHT22;21729;58.392;15.656;2023-07-31T12:00:22;22.50;99.90
35607;DHT22;21729;58.392;15.656;2023-07-31T12:02:51;22.30;99.90
35607;DHT22;21729;58.392;15.656;2023-07-31T12:05:18;22.20;99.90
35607;DHT22;21729;58.392;15.656;2023-07-31T12:07:49;21.90;99.90
35607;DHT22;21729;58.392;15.656;2023-07-31T12:10:24;21.80;99.90
35607;DHT22;21729;58.392;15.656;2023-07-31T12:13:02;21.80;99.90
35607;DHT22;21729;58.392;15.656;2023-07-31T12:15:35;21.60;99.90
35607;DHT22;21729;58.392;15.656;2023-07-31T12:18:05;21.40;99.90
35607;DHT22;21729;58.392;15.656;2023-07-31T12:20:33;21.30;99.90
35607;DHT22;21729;58.392;15.656;2023-07-31T12:23:02;21.40;99.90
35607;DHT22;21729;58.392;15.656;2023-07-31T12:25:33;21.20;99.90
35607;DHT22;21729;58.392;15.656;2023-07-31T12:28:05;21.10;99.90
35607;DHT22;21729;58.392;15.656;2023-07-31T12:30:37;21.10;99.90
35607;DHT22;21729;58.392;15.656;2023-07-31T12:33:05;21.10;99.90
35607;DHT22;21729;58.392;15.656;2023-07-31T12:35:37;21.10;99.90
35607;DHT22;21729;58.392;15.656;2023-07-31T12:38:06;21.10;99.90
35607;DHT22;21729;58.392;15.656;2023-07-31T12:40:35;21.40;99.90
35607;DHT22;21729;58.392;15.656;2023-07-31T12:43:02;21.60;99.90
35607;DHT22;21729;58.392;15.656;2023-07-31T12:45:30;21.70;99.90
35607;DHT22;21729;58.392;15.656;2023-07-31T12:47:57;21.60;99.90
35607;DHT22;21729;58.392;15.656;2023-07-31T12:50:24;21.50;99.90
35607;DHT22;21729;58.392;15.656;2023-07-31T12:52:53;21.50;99.90
35607;DHT22;21729;58.392;15.656;2023-07-31T12:55:22;21.60;99.90
35607;DHT22;21729;58.392;15.656;2023-07-31T12:57:49;21.70;99.90
35607;DHT22;21729;58.392;15.656;2023-07-31T13:00:17;21.80;99.90
35607;DHT22;21729;58.392;15.656;2023-07-31T13:02:44;22.10;99.90
35607;DHT22;21729;58.392;15.656;2023-07-31T13:05:11;22.30;99.90
35607;DHT22;21729;58.392;15.656;2023-07-31T13:07:39;22.00;99.90
35607;DHT22;21729;58.392;15.656;2023-07-31T13:10:07;21.60;99.90
35607;DHT22;21729;58.392;15.656;2023-07-31T13:12:36;21.30;99.90
35607;DHT22;21729;58.392;15.656;2023-07-31T13:15:03;21.20;99.90
35607;DHT22;21729;58.392;15.656;2023-07-31T13:17:31;20.90;99.90
35607;DHT22;21729;58.392;15.656;2023-07-31T13:19:58;20.60;99.90
35607;DHT22;21729;58.392;15.656;2023-07-31T13:22:25;20.50;99.90
35607;DHT22;21729;58.392;15.656;2023-07-31T13:24:52;20.60;99.90
35607;DHT22;21729;58.392;15.656;2023-07-31T13:27:19;20.60;99.90
35607;DHT22;21729;58.392;15.656;2023-07-31T13:29:49;20.50;99.90
35607;DHT22;21729;58.392;15.656;2023-07-31T13:32:16;20.60;99.90
35607;DHT22;21729;58.392;15.656;2023-07-31T13:34:44;20.60;99.90
35607;DHT22;21729;58.392;15.656;2023-07-31T13:37:11;20.70;99.90
35607;DHT22;21729;58.392;15.656;2023-07-31T13:39:39;20.70;99.90
35607;DHT22;21729;58.392;15.656;2023-07-31T13:42:07;20.70;99.90
35607;DHT22;21729;58.392;15.656;2023-07-31T13:44:37;20.50;99.90
35607;DHT22;21729;58.392;15.656;2023-07-31T13:47:06;20.40;99.90
35607;DHT22;21729;58.392;15.656;2023-07-31T13:49:33;20.40;99.90
35607;DHT22;21729;58.392;15.656;2023-07-31T13:52:01;20.40;99.90
35607;DHT22;21729;58.392;15.656;2023-07-31T13:54:29;20.30;1.00
35607;DHT22;21729;58.392;15.656;2023-07-31T13:56:56;20.10;1.00
35607;DHT22;21729;58.392;15.656;2023-07-31T13:59:24;20.00;1.00
35607;DHT22;21729;58.392;15.656;2023-07-31T14:01:52;20.10;1.00
35607;DHT22;21729;58.392;15.656;2023-07-31T14:04:21;20.20;1.00
35607;DHT22;21729;58.392;15.656;2023-07-31T14:06:49;20.20;1.00
35607;DHT22;21729;58.392;15.656;2023-07-31T14:09:16;20.30;1.00
35607;DHT22;21729;58.392;15.656;2023-07-31T14:11:44;20.30;1.00
35607;DHT22;21729;58.392;15.656;2023-07-31T14:14:11;20.30;1.00
35607;DHT22;21729;58.392;15.656;2023-07-31T14:16:39;20.10;99.90
35607;DHT22;21729;58.392;15.656;2023-07-31T14:19:06;20.00;99.90
35607;DHT22;21729;58.392;15.656;2023-07-31T14:21:36;19.90;1.00
35607;DHT22;21729;58.392;15.656;2023-07-31T14:24:03;20.20;99.90
35607;DHT22;21729;58.392;15.656;2023-07-31T14:26:30;20.10;99.90
35607;DHT22;21729;58.392;15.656;2023-07-31T14:28:57;20.20;99.90
35607;DHT22;21729;58.392;15.656;2023-07-31T14:31:24;20.00;99.90
35607;DHT22;21729;58.392;15.656;2023-07-31T14:33:51;19.90;99.90
35607;DHT22;21729;58.392;15.656;2023-07-31T14:36:19;19.90;99.90
35607;DHT22;21729;58.392;15.656;2023-07-31T14:38:47;19.80;99.90
35607;DHT22;21729;58.392;15.656;2023-07-31T14:41:14;20.00;99.90
35607;DHT22;21729;58.392;15.656;2023-07-31T14:43:41;20.30;99.90
35607;DHT22;21729;58.392;15.656;2023-07-31T14:46:08;20.60;99.90
35607;DHT22;21729;58.392;15.656;2023-07-31T14:48:35;20.70;99.90
35607;DHT22;21729;58.392;15.656;2023-07-31T14:51:03;20.60;99.90
35607;DHT22;21729;58.392;15.656;2023-07-31T14:53:30;20.50;99.90
35607;DHT22;21729;58.392;15.656;2023-07-31T14:55:58;20.40;99.90
35607;DHT22;21729;58.392;15.656;2023-07-31T14:58:26;19.70;99.90
35607;DHT22;21729;58.392;15.656;2023-07-31T15:00:53;19.40;99.90
35607;DHT22;21729;58.392;15.656;2023-07-31T15:03:20;18.90;99.90
35607;DHT22;21729;58.392;15.656;2023-07-31T15:05:47;18.50;1.00
35607;DHT22;21729;58.392;15.656;2023-07-31T15:08:14;18.30;1.00
35607;DHT22;21729;58.392;15.656;2023-07-31T15:10:42;18.10;56.70
35607;DHT22;21729;58.392;15.656;2023-07-31T15:13:10;17.70;99.90
35607;DHT22;21729;58.392;15.656;2023-07-31T15:15:37;17.40;99.90
35607;DHT22;21729;58.392;15.656;2023-07-31T15:18:04;17.00;1.00
35607;DHT22;21729;58.392;15.656;2023-07-31T15:20:31;16.80;1.00
35607;DHT22;21729;58.392;15.656;2023-07-31T15:22:59;16.50;1.00
35607;DHT22;21729;58.392;15.656;2023-07-31T15:25:27;16.30;50.80